Time;durP1;ratioP1;P1;durP2;ratioP2;P2;SDS_P1;SDS_P2;PMS_P1;PMS_P2;Temp;Humidity;BMP_temperature;BMP_pressure;BME280_temperature;BME280_humidity;BME280_pressure;Samples;Min_cycle;Max_cycle;Signal;HPM_P1;HPM_P2
2022/10/17 00:02:39;;;;;;;;;10.00;8.00;;;;;28.81;100.00;101362.44;5117523;27;51022;-49
2022/10/17 00:05:24;;;;;;;;;10.75;7.75;;;;;28.78;100.00;101357.16;5120734;27;51518;-48
2022/10/17 00:08:10;;;;;;;;;8.50;8.00;;;;;28.80;100.00;101349.72;5123058;27;51044;-48
2022/10/17 00:11:05;;;;;;;;;11.00;8.75;;;;;28.82;100.00;101348.63;5122625;27;51136;-47
2022/10/17 00:13:54;;;;;;;;;9.00;7.50;;;;;28.80;100.00;101339.63;5122268;27;51255;-48
2022/10/17 00:16:39;;;;;;;;;12.25;9.00;;;;;28.85;100.00;101350.25;5123138;27;51018;-48
2022/10/17 00:19:23;;;;;;;;;11.25;9.00;;;;;28.90;100.00;101351.69;5122833;27;51160;-47
2022/10/17 00:22:08;;;;;;;;;11.50;9.25;;;;;28.92;100.00;101349.72;5119707;27;51358;-50
2022/10/17 00:24:53;;;;;;;;;14.00;8.75;;;;;28.89;100.00;101338.09;5122697;27;51240;-48
2022/10/17 00:27:39;;;;;;;;;9.00;8.00;;;;;28.93;100.00;101339.66;5123505;27;51095;-49
2022/10/17 00:30:24;;;;;;;;;9.00;6.25;;;;;28.93;100.00;101339.66;5122733;27;51459;-47
2022/10/17 00:33:08;;;;;;;;;9.75;7.75;;;;;28.91;100.00;101328.78;5122644;27;51686;-47
2022/10/17 00:36:08;;;;;;;;;10.00;6.75;;;;;28.89;100.00;101329.91;5122615;27;51466;-47
2022/10/17 00:38:56;;;;;;;;;10.00;7.50;;;;;28.86;100.00;101330.09;5122604;27;51149;-50
2022/10/17 00:41:41;;;;;;;;;10.00;8.75;;;;;28.82;100.00;101315.75;5123200;27;51200;-47
2022/10/17 00:44:28;;;;;;;;;8.50;7.75;;;;;28.90;100.00;101328.91;5115321;27;51127;-49
2022/10/17 00:47:16;;;;;;;;;11.00;7.50;;;;;28.93;100.00;101331.44;5121138;27;51223;-48
2022/10/17 00:50:01;;;;;;;;;6.00;6.00;;;;;28.98;100.00;101326.47;5119347;27;51133;-49
2022/10/17 00:52:48;;;;;;;;;7.00;6.75;;;;;29.03;100.00;101320.66;5121867;27;51012;-48
2022/10/17 00:55:38;;;;;;;;;14.25;6.75;;;;;29.05;100.00;101316.81;5122267;27;51356;-50
2022/10/17 00:58:23;;;;;;;;;8.75;7.75;;;;;29.05;100.00;101325.03;5121670;27;51315;-48
2022/10/17 01:01:08;;;;;;;;;11.75;9.00;;;;;29.06;100.00;101318.56;5122380;27;51069;-49
2022/10/17 01:03:52;;;;;;;;;11.25;10.00;;;;;29.05;100.00;101316.81;5121096;27;51131;-49
2022/10/17 01:06:36;;;;;;;;;11.25;8.75;;;;;29.04;100.00;101319.69;5116188;27;51007;-47
2022/10/17 01:09:21;;;;;;;;;11.00;9.00;;;;;29.03;100.00;101317.94;5122104;27;51317;-47
2022/10/17 01:12:24;;;;;;;;;14.50;8.75;;;;;29.04;100.00;101315.09;5117319;27;51163;-46
2022/10/17 01:15:32;;;;;;;;;11.75;9.00;;;;;29.05;100.00;101316.81;5119677;27;51149;-47
2022/10/17 01:18:44;;;;;;;;;10.75;8.50;;;;;29.03;100.00;101317.94;5122113;27;51124;-47
2022/10/17 01:21:47;;;;;;;;;9.00;7.75;;;;;29.03;100.00;101316.09;5121507;27;51101;-47
2022/10/17 01:24:47;;;;;;;;;11.50;7.00;;;;;29.00;100.00;101319.03;5121225;27;51062;-48
2022/10/17 01:27:48;;;;;;;;;9.50;7.75;;;;;28.90;100.00;101310.59;5120700;27;51550;-47
2022/10/17 01:31:06;;;;;;;;;10.75;8.00;;;;;29.01;100.00;101323.53;5119997;27;51214;-49
2022/10/17 01:33:51;;;;;;;;;7.00;7.00;;;;;29.02;100.00;101321.66;5114193;27;51099;-48
2022/10/17 01:37:03;;;;;;;;;10.25;7.00;;;;;29.01;100.00;101314.41;5120123;27;51751;-50
2022/10/17 01:40:05;;;;;;;;;7.50;7.50;;;;;29.02;100.00;101318.91;5120785;27;51440;-48
2022/10/17 01:42:59;;;;;;;;;11.50;8.00;;;;;28.96;100.00;101317.50;5121272;27;51056;-51
2022/10/17 01:45:49;;;;;;;;;13.50;9.50;;;;;28.97;100.00;101311.03;5121622;27;51011;-48
2022/10/17 01:48:35;;;;;;;;;11.00;9.50;;;;;28.95;100.00;101304.78;5121274;27;51126;-47
2022/10/17 01:51:30;;;;;;;;;10.25;9.50;;;;;28.97;100.00;101315.66;5118781;27;51197;-49
2022/10/17 01:54:50;;;;;;;;;9.50;7.50;;;;;28.96;100.00;101306.53;5121723;27;51209;-47
2022/10/17 01:57:40;;;;;;;;;12.75;9.50;;;;;28.92;100.00;101300.41;5121423;27;51079;-48
2022/10/17 02:00:27;;;;;;;;;7.50;7.50;;;;;28.92;100.00;101285.84;5120121;27;51082;-51
2022/10/17 02:03:17;;;;;;;;;9.00;7.75;;;;;28.92;100.00;101283.13;5121219;27;51158;-48
2022/10/17 02:06:02;;;;;;;;;9.25;8.50;;;;;28.95;100.00;101287.50;5120038;27;51493;-47
2022/10/17 02:08:50;;;;;;;;;13.50;8.75;;;;;28.96;100.00;101291.97;5121307;27;51180;-49
2022/10/17 02:11:35;;;;;;;;;8.00;7.75;;;;;28.92;100.00;101286.72;5117691;27;51174;-48
2022/10/17 02:14:29;;;;;;;;;13.25;11.00;;;;;28.88;100.00;101277.00;5114070;27;51149;-49
2022/10/17 02:17:33;;;;;;;;;11.00;7.25;;;;;28.88;100.00;101281.56;5120781;27;51187;-51
2022/10/17 02:20:37;;;;;;;;;14.25;9.50;;;;;28.86;100.00;101283.53;5112945;27;51037;-49
2022/10/17 02:23:43;;;;;;;;;9.50;7.25;;;;;28.83;100.00;101284.66;5120150;27;51180;-48
2022/10/17 02:26:33;;;;;;;;;9.75;8.00;;;;;28.78;100.00;101264.06;5119747;27;51362;-47
2022/10/17 02:29:25;;;;;;;;;7.25;5.00;;;;;28.82;100.00;101260.13;5119860;27;51192;-48
2022/10/17 02:32:16;;;;;;;;;11.00;8.00;;;;;28.77;100.00;101255.00;5119677;27;51586;-47
2022/10/17 02:35:03;;;;;;;;;10.75;8.25;;;;;28.73;100.00;101254.31;5122206;27;51195;-48
2022/10/17 02:37:50;;;;;;;;;12.25;8.25;;;;;28.70;100.00;101250.88;5125442;27;51128;-51
2022/10/17 02:40:36;;;;;;;;;6.75;6.75;;;;;28.69;100.00;101257.34;5125087;27;51496;-47
2022/10/17 02:43:22;;;;;;;;;9.75;8.25;;;;;28.67;100.00;101262.09;5124839;27;51197;-49
2022/10/17 02:46:07;;;;;;;;;11.50;9.25;;;;;28.59;100.00;101246.19;5124990;27;51455;-48
2022/10/17 02:48:58;;;;;;;;;12.25;10.00;;;;;28.62;100.00;101254.22;5109676;27;51041;-48
2022/10/17 02:51:51;;;;;;;;;11.50;10.50;;;;;28.51;100.00;101235.81;5124852;27;52115;-48
2022/10/17 02:54:41;;;;;;;;;7.75;7.25;;;;;28.60;100.00;101254.28;5124917;27;51199;-47
2022/10/17 02:57:59;;;;;;;;;9.00;7.50;;;;;28.58;100.00;101253.53;5124815;27;51519;-48
2022/10/17 03:00:44;;;;;;;;;9.75;8.25;;;;;28.55;100.00;101240.06;5083254;27;51162;-48
2022/10/17 03:03:31;;;;;;;;;12.00;8.50;;;;;28.55;100.00;101242.81;5123872;27;52038;-49
2022/10/17 03:06:16;;;;;;;;;12.50;9.00;;;;;28.54;100.00;101243.81;5124306;27;51020;-49
2022/10/17 03:09:01;;;;;;;;;11.25;9.25;;;;;28.51;100.00;101234.94;5124690;27;51108;-48
2022/10/17 03:11:46;;;;;;;;;12.75;9.00;;;;;28.53;100.00;101243.88;5124604;27;51496;-48
2022/10/17 03:14:30;;;;;;;;;16.50;7.50;;;;;28.49;100.00;101232.28;5111645;27;51201;-49
2022/10/17 03:17:15;;;;;;;;;11.50;9.50;;;;;28.51;100.00;101235.81;5124195;27;51174;-47
2022/10/17 03:19:59;;;;;;;;;10.75;9.00;;;;;28.48;100.00;101229.69;5124893;27;51082;-48
2022/10/17 03:22:44;;;;;;;;;11.00;8.75;;;;;28.51;100.00;101243.16;5117342;27;51077;-48
2022/10/17 03:25:29;;;;;;;;;11.75;8.75;;;;;28.52;100.00;101247.63;5123784;27;51095;-50
2022/10/17 03:28:13;;;;;;;;;12.50;10.00;;;;;28.52;100.00;101255.84;5123352;27;51029;-47
2022/10/17 03:30:58;;;;;;;;;11.25;8.50;;;;;28.54;100.00;101256.59;5117205;27;51412;-51
2022/10/17 03:33:43;;;;;;;;;11.75;10.00;;;;;28.54;100.00;101262.97;5123259;27;51211;-48
2022/10/17 03:36:27;;;;;;;;;11.25;10.25;;;;;28.53;100.00;101255.72;5123436;27;51290;-48
2022/10/17 03:39:12;;;;;;;;;10.50;8.50;;;;;28.56;100.00;101261.00;5123378;27;51165;-48
2022/10/17 03:41:56;;;;;;;;;10.00;8.25;;;;;28.58;100.00;101264.47;5116260;27;51158;-47
2022/10/17 03:44:41;;;;;;;;;17.50;13.50;;;;;28.54;100.00;101256.59;5123736;27;51196;-47
2022/10/17 03:47:25;;;;;;;;;13.00;11.75;;;;;28.64;100.00;101278.72;5123172;27;51412;-48
2022/10/17 03:50:10;;;;;;;;;11.00;11.00;;;;;28.68;100.00;101283.00;5122942;27;51160;-48
2022/10/17 03:52:54;;;;;;;;;11.25;8.50;;;;;28.71;100.00;101275.47;5124185;27;51191;-47
2022/10/17 03:55:39;;;;;;;;;9.25;8.00;;;;;28.73;100.00;101289.03;5123423;27;51480;-47
2022/10/17 03:58:23;;;;;;;;;8.00;7.00;;;;;28.74;100.00;101280.72;5123764;27;51131;-48
2022/10/17 04:01:10;;;;;;;;;17.25;11.00;;;;;28.76;100.00;101284.22;5117814;27;51094;-47
2022/10/17 04:03:56;;;;;;;;;11.75;9.75;;;;;28.79;100.00;101287.72;5122900;27;51083;-47
2022/10/17 04:06:40;;;;;;;;;17.25;13.25;;;;;28.79;100.00;101288.59;5123066;27;51532;-48
2022/10/17 04:09:25;;;;;;;;;11.00;9.50;;;;;28.82;100.00;101284.78;5123547;27;51210;-48
2022/10/17 04:12:10;;;;;;;;;8.75;8.75;;;;;28.82;100.00;101282.91;5114073;27;51958;-48
2022/10/17 04:14:56;;;;;;;;;13.00;11.25;;;;;28.84;100.00;101291.00;5122291;27;51382;-48
2022/10/17 04:17:40;;;;;;;;;16.50;11.25;;;;;28.83;100.00;101301.09;5123418;27;51213;-49
2022/10/17 04:20:25;;;;;;;;;9.50;8.25;;;;;28.85;100.00;101300.97;5122776;27;51165;-48
2022/10/17 04:23:09;;;;;;;;;10.50;8.75;;;;;28.85;100.00;101295.47;5123277;27;51197;-47
2022/10/17 04:25:59;;;;;;;;;12.00;9.00;;;;;28.86;100.00;101303.63;5122880;27;51315;-48
2022/10/17 04:28:44;;;;;;;;;13.25;9.25;;;;;28.86;100.00;101308.19;5123176;27;51041;-48
2022/10/17 04:31:28;;;;;;;;;10.75;8.50;;;;;28.86;100.00;101317.31;5123142;27;51197;-52
2022/10/17 04:34:13;;;;;;;;;8.50;8.00;;;;;28.86;100.00;101311.81;5122793;27;51103;-48
2022/10/17 04:36:57;;;;;;;;;12.75;10.50;;;;;28.86;100.00;101319.16;5122855;27;51113;-51
2022/10/17 04:39:42;;;;;;;;;12.75;9.25;;;;;28.87;100.00;101310.84;5122557;27;51075;-48
2022/10/17 04:42:28;;;;;;;;;12.75;8.50;;;;;28.82;100.00;101310.28;5123191;27;51340;-50
2022/10/17 04:45:12;;;;;;;;;10.75;10.00;;;;;28.87;100.00;101318.16;5121361;27;51444;-49
2022/10/17 04:47:57;;;;;;;;;12.00;7.50;;;;;28.85;100.00;101315.56;5122655;27;51177;-49
2022/10/17 04:50:41;;;;;;;;;11.00;8.50;;;;;28.84;100.00;101319.28;5122707;27;51168;-47
2022/10/17 04:53:26;;;;;;;;;18.00;11.25;;;;;28.83;100.00;101328.47;5121826;27;51202;-47
2022/10/17 04:56:16;;;;;;;;;11.50;10.75;;;;;28.82;100.00;101334.94;5122162;27;51548;-48
2022/10/17 04:59:01;;;;;;;;;10.00;7.50;;;;;28.79;100.00;101334.28;5121317;27;51256;-49
2022/10/17 05:01:48;;;;;;;;;8.00;7.00;;;;;28.81;100.00;101343.28;5120054;27;51218;-48
2022/10/17 05:04:33;;;;;;;;;11.75;7.50;;;;;28.76;100.00;101340.88;5117813;27;51133;-48
2022/10/17 05:07:17;;;;;;;;;11.00;8.00;;;;;28.79;100.00;101348.84;5122348;27;51201;-48
2022/10/17 05:10:02;;;;;;;;;9.75;7.25;;;;;28.78;100.00;101352.59;5122210;27;51088;-50
2022/10/17 05:12:48;;;;;;;;;8.75;7.50;;;;;28.78;100.00;101355.31;5103195;27;51172;-49
2022/10/17 05:15:34;;;;;;;;;11.25;6.50;;;;;28.77;100.00;101356.31;5118436;27;51125;-48
2022/10/17 05:18:19;;;;;;;;;41.25;33.25;;;;;28.76;100.00;101360.03;5122092;27;51081;-49
2022/10/17 05:21:04;;;;;;;;;11.50;8.25;;;;;28.73;100.00;101352.88;5121229;27;51001;-44
2022/10/17 05:23:48;;;;;;;;;9.00;9.00;;;;;28.76;100.00;101355.41;5119187;27;51169;-45
2022/10/17 05:26:33;;;;;;;;;9.25;8.50;;;;;28.78;100.00;101357.16;5120385;27;51133;-44
2022/10/17 05:29:18;;;;;;;;;9.25;8.25;;;;;28.81;100.00;101366.03;5119970;27;51817;-44
2022/10/17 05:32:03;;;;;;;;;12.50;9.00;;;;;28.84;100.00;101367.69;5113031;27;51231;-45
2022/10/17 05:34:47;;;;;;;;;12.50;11.00;;;;;28.85;100.00;101363.97;5119523;27;51558;-45
2022/10/17 05:37:32;;;;;;;;;16.00;12.25;;;;;28.84;100.00;101357.63;5113684;27;51100;-44
2022/10/17 05:40:17;;;;;;;;;13.00;8.25;;;;;28.85;100.00;101358.47;5118378;27;51236;-44
2022/10/17 05:43:02;;;;;;;;;13.50;10.25;;;;;28.87;100.00;101372.94;5116589;27;51416;-45
2022/10/17 05:45:47;;;;;;;;;12.75;9.50;;;;;28.90;100.00;101373.59;5104287;27;51439;-44
2022/10/17 05:48:32;;;;;;;;;14.25;11.75;;;;;28.95;100.00;101372.41;5119683;27;51133;-45
2022/10/17 05:51:16;;;;;;;;;15.50;10.00;;;;;29.01;100.00;101371.94;5118740;27;51523;-44
2022/10/17 05:54:01;;;;;;;;;9.75;8.75;;;;;29.07;100.00;101377.00;5119279;27;51155;-45
2022/10/17 05:56:45;;;;;;;;;12.75;11.00;;;;;29.10;100.00;101378.63;5115894;27;51474;-43
2022/10/17 05:59:29;;;;;;;;;8.75;8.75;;;;;29.12;100.00;101383.00;5119982;27;51519;-45
2022/10/17 06:02:14;;;;;;;;;12.00;9.00;;;;;29.17;100.00;101386.31;5119551;27;51067;-45
2022/10/17 06:04:59;;;;;;;;;12.50;10.25;;;;;29.16;100.00;101398.25;5115425;27;51110;-42
2022/10/17 06:07:44;;;;;;;;;12.00;11.00;;;;;29.25;100.00;101398.56;5120125;27;51142;-45
2022/10/17 06:10:28;;;;;;;;;9.50;8.00;;;;;29.45;100.00;101394.41;5117797;27;51604;-45
2022/10/17 06:13:13;;;;;;;;;11.50;8.00;;;;;29.67;100.00;101399.19;5118530;27;51397;-45
2022/10/17 06:15:58;;;;;;;;;9.75;9.25;;;;;29.86;100.00;101384.97;5118098;27;51229;-43
2022/10/17 06:18:42;;;;;;;;;12.00;8.75;;;;;30.14;100.00;101400.25;5119894;27;51154;-46
2022/10/17 06:21:28;;;;;;;;;11.25;9.25;;;;;30.33;100.00;101400.66;5119379;27;51106;-46
2022/10/17 06:24:13;;;;;;;;;12.75;8.00;;;;;30.44;100.00;101407.09;5117712;27;51385;-44
2022/10/17 06:26:58;;;;;;;;;8.00;6.00;;;;;30.46;100.00;101401.47;5115890;27;51179;-44
2022/10/17 06:29:43;;;;;;;;;10.00;8.75;;;;;30.29;100.00;101395.44;5119628;27;51145;-45
2022/10/17 06:32:29;;;;;;;;;11.25;9.25;;;;;30.38;100.00;101414.94;5118979;27;51183;-47
2022/10/17 06:35:13;;;;;;;;;11.25;10.25;;;;;30.30;100.00;101401.78;5120418;27;51339;-45
2022/10/17 06:37:58;;;;;;;;;17.25;11.75;;;;;30.38;100.00;101418.53;5118716;27;51236;-45
2022/10/17 06:40:43;;;;;;;;;13.75;11.25;;;;;30.55;100.00;101416.41;5120157;27;51465;-46
2022/10/17 06:43:27;;;;;;;;;17.75;15.50;;;;;31.05;100.00;101417.00;5117060;27;51127;-45
2022/10/17 06:46:15;;;;;;;;;13.00;10.00;;;;;31.67;100.00;101424.91;5120565;27;51093;-44
2022/10/17 06:49:00;;;;;;;;;12.00;11.00;;;;;32.36;100.00;101415.50;5118280;27;51263;-43
2022/10/17 06:51:44;;;;;;;;;12.25;8.75;;;;;32.81;100.00;101417.19;5118860;27;51675;-44
2022/10/17 06:54:29;;;;;;;;;7.75;7.75;;;;;33.05;100.00;101413.25;5113223;27;51321;-46
2022/10/17 06:57:14;;;;;;;;;9.00;9.00;;;;;33.67;100.00;101411.38;5118057;27;51180;-44
2022/10/17 06:59:59;;;;;;;;;13.50;10.75;;;;;34.72;100.00;101413.69;5114448;27;51165;-43
2022/10/17 07:02:43;;;;;;;;;20.00;14.75;;;;;36.04;100.00;101398.00;5119824;27;51174;-44
2022/10/17 07:05:28;;;;;;;;;9.25;6.25;;;;;37.29;100.00;101409.06;5116573;27;51410;-44
2022/10/17 07:08:13;;;;;;;;;10.50;7.25;;;;;37.68;100.00;101403.00;5111102;27;52022;-44
2022/10/17 07:10:59;;;;;;;;;8.50;8.00;;;;;38.30;100.00;101399.00;5116410;27;51092;-45
2022/10/17 07:13:43;;;;;;;;;6.50;4.25;;;;;39.43;100.00;101402.84;5114188;27;51185;-47
2022/10/17 07:16:27;;;;;;;;;7.25;6.00;;;;;39.85;100.00;101397.97;5114077;27;51302;-44
2022/10/17 07:19:12;;;;;;;;;9.25;5.75;;;;;40.67;100.00;101390.03;5119269;27;51400;-44
2022/10/17 07:21:56;;;;;;;;;8.00;5.50;;;;;41.24;100.00;101399.72;5117936;27;51050;-45
2022/10/17 07:24:41;;;;;;;;;5.50;5.50;;;;;41.42;100.00;101399.31;5119402;27;51195;-46
2022/10/17 07:27:26;;;;;;;;;7.50;5.00;;;;;41.11;100.00;101414.34;5122920;27;51212;-45
2022/10/17 07:30:11;;;;;;;;;12.00;6.00;;;;;40.42;100.00;101415.34;5120816;27;51405;-46
2022/10/17 07:32:55;;;;;;;;;6.50;6.50;;;;;39.60;100.00;101411.97;5120129;27;51184;-44
2022/10/17 07:35:40;;;;;;;;;6.50;4.75;;;;;38.72;100.00;101417.44;5123334;27;51197;-45
2022/10/17 07:38:24;;;;;;;;;4.50;4.00;;;;;38.36;100.00;101423.34;5122446;27;51325;-45
2022/10/17 07:41:11;;;;;;;;;6.00;4.00;;;;;38.20;100.00;101423.31;5123610;27;51330;-44
2022/10/17 07:43:56;;;;;;;;;6.25;5.00;;;;;38.33;100.00;101417.22;5122692;27;51038;-44
2022/10/17 07:46:41;;;;;;;;;7.00;3.75;;;;;39.85;100.00;101420.25;5123783;27;51165;-45
2022/10/17 07:49:25;;;;;;;;;5.50;4.25;;;;;41.56;100.00;101430.25;5123585;27;51036;-44
2022/10/17 07:52:13;;;;;;;;;6.00;6.00;;;;;42.87;100.00;101432.97;5122176;27;51130;-45
2022/10/17 07:54:59;;;;;;;;;10.00;4.25;;;;;42.80;100.00;101426.47;5122657;27;51071;-44
2022/10/17 07:57:44;;;;;;;;;5.00;5.00;;;;;42.75;100.00;101434.56;5120823;27;51073;-43
2022/10/17 08:00:28;;;;;;;;;6.75;3.75;;;;;42.68;100.00;101445.69;5123665;27;51320;-45
2022/10/17 08:03:13;;;;;;;;;5.50;4.00;;;;;42.48;100.00;101445.53;5120656;27;51193;-45
2022/10/17 08:05:58;;;;;;;;;5.50;3.75;;;;;41.91;100.00;101456.50;5122237;27;51582;-46
2022/10/17 08:08:43;;;;;;;;;8.50;6.50;;;;;41.32;100.00;101455.47;5122899;27;51161;-46
2022/10/17 08:11:28;;;;;;;;;3.50;3.50;;;;;40.72;100.00;101455.34;5120853;27;51070;-47
2022/10/17 08:14:13;;;;;;;;;4.50;4.25;;;;;39.94;100.00;101455.34;5111856;27;52019;-44
2022/10/17 08:16:57;;;;;;;;;4.25;4.25;;;;;38.86;100.00;101465.94;5122333;27;51194;-45
2022/10/17 08:19:42;;;;;;;;;5.25;4.25;;;;;37.66;100.00;101464.25;5122287;27;51086;-46
2022/10/17 08:22:26;;;;;;;;;5.25;4.75;;;;;36.73;100.00;101474.03;5120692;27;51159;-45
2022/10/17 08:25:10;;;;;;;;;7.75;5.00;;;;;35.97;100.00;101478.97;5119792;27;51169;-47
2022/10/17 08:27:55;;;;;;;;;10.00;5.00;;;;;35.60;100.00;101478.97;5119540;27;51455;-46
2022/10/17 08:30:40;;;;;;;;;7.50;3.50;;;;;35.53;100.00;101482.34;5120907;27;51248;-45
2022/10/17 08:33:24;;;;;;;;;9.25;5.50;;;;;35.56;100.00;101477.53;5120284;27;51159;-44
2022/10/17 08:36:12;;;;;;;;;5.75;5.50;;;;;35.71;100.00;101484.31;5122297;27;51507;-47
2022/10/17 08:38:56;;;;;;;;;5.00;3.25;;;;;35.75;100.00;101485.75;5121768;27;51522;-44
2022/10/17 08:41:56;;;;;;;;;11.75;4.25;;;;;35.73;100.00;101481.38;5121750;27;51116;-46
2022/10/17 08:45:10;;;;;;;;;7.50;3.00;;;;;35.72;100.00;101490.72;5121296;27;51293;-45
2022/10/17 08:48:00;;;;;;;;;5.75;2.75;;;;;35.88;100.00;101493.69;5116539;27;51097;-46
2022/10/17 08:50:55;;;;;;;;;5.00;5.00;;;;;35.91;100.00;101487.84;5118849;27;51419;-45
2022/10/17 08:53:57;;;;;;;;;4.25;4.25;;;;;35.75;100.00;101499.59;5114904;27;51135;-45
2022/10/17 08:56:44;;;;;;;;;5.25;3.75;;;;;35.38;100.00;101500.44;5119713;27;51379;-45
2022/10/17 08:59:30;;;;;;;;;6.25;4.25;;;;;34.96;100.00;101498.06;5120530;27;51131;-44
2022/10/17 09:02:28;;;;;;;;;4.00;4.00;;;;;34.63;100.00;101511.28;5114563;27;51073;-46
2022/10/17 09:05:36;;;;;;;;;8.75;5.25;;;;;34.68;100.00;101515.38;5120113;27;51529;-45
2022/10/17 09:08:24;;;;;;;;;4.75;4.75;;;;;35.43;100.00;101514.72;5121656;27;51056;-44
2022/10/17 09:11:53;;;;;;;;;5.00;3.75;;;;;36.24;100.00;101513.19;5115125;27;51127;-44
2022/10/17 09:15:02;;;;;;;;;6.75;5.25;;;;;36.98;100.00;101498.34;5098564;27;51074;-45
2022/10/17 09:17:49;;;;;;;;;6.00;3.00;;;;;37.20;100.00;101500.56;5121168;27;51380;-44
2022/10/17 09:20:38;;;;;;;;;4.75;3.25;;;;;37.20;100.00;101494.13;5116520;27;51493;-45
2022/10/17 09:23:30;;;;;;;;;6.25;6.25;;;;;37.24;100.00;101494.72;5121000;27;51574;-44
2022/10/17 09:26:15;;;;;;;;;8.25;7.25;;;;;37.15;100.00;101491.84;5118522;27;51093;-44
2022/10/17 09:29:00;;;;;;;;;4.75;4.00;;;;;37.07;100.00;101489.03;5120622;27;51443;-44
2022/10/17 09:31:51;;;;;;;;;8.00;5.00;;;;;37.04;100.00;101486.59;5120404;27;51102;-44
2022/10/17 09:34:36;;;;;;;;;4.75;4.75;;;;;36.99;100.00;101477.88;5121031;27;51075;-47
2022/10/17 09:37:28;;;;;;;;;5.75;4.50;;;;;36.98;100.00;101481.69;5117555;27;51183;-47
2022/10/17 09:40:23;;;;;;;;;6.25;3.00;;;;;36.88;100.00;101485.41;5111977;27;51271;-44
2022/10/17 09:43:12;;;;;;;;;3.25;3.25;;;;;36.82;100.00;101480.53;5119066;27;51208;-43
2022/10/17 09:46:28;;;;;;;;;4.50;4.25;;;;;36.81;100.00;101477.88;5102575;27;51465;-46
2022/10/17 09:49:17;;;;;;;;;3.25;3.25;;;;;36.74;100.00;101470.22;5119558;27;51289;-46
2022/10/17 09:52:05;;;;;;;;;4.25;4.25;;;;;36.71;100.00;101473.31;5119285;27;51265;-45
2022/10/17 09:54:53;;;;;;;;;4.00;4.00;;;;;36.67;100.00;101463.56;5121090;27;51146;-43
2022/10/17 09:58:02;;;;;;;;;3.25;1.50;;;;;36.63;100.00;101467.69;5116277;27;51455;-43
2022/10/17 10:00:47;;;;;;;;;6.50;4.00;;;;;36.59;100.00;101458.84;5117853;27;51381;-43
2022/10/17 10:03:32;;;;;;;;;5.25;3.25;;;;;36.60;100.00;101456.91;5117344;27;51216;-43
2022/10/17 10:06:20;;;;;;;;;4.00;3.00;;;;;36.50;100.00;101453.38;5117782;27;51211;-44
2022/10/17 10:09:06;;;;;;;;;5.50;4.50;;;;;36.42;100.00;101443.06;5120651;27;51053;-44
2022/10/17 10:11:56;;;;;;;;;8.75;6.50;;;;;36.38;100.00;101453.56;5118423;27;51113;-43
2022/10/17 10:14:41;;;;;;;;;5.25;4.00;;;;;36.34;100.00;101448.50;5119270;27;51385;-45
2022/10/17 10:17:40;;;;;;;;;3.75;3.25;;;;;36.28;100.00;101445.38;5119420;27;51116;-41
2022/10/17 10:20:28;;;;;;;;;5.50;4.00;;;;;36.28;100.00;101450.00;5119996;27;51003;-43
2022/10/17 10:23:18;;;;;;;;;4.75;3.25;;;;;36.25;100.00;101453.97;5119319;27;51444;-43
2022/10/17 10:26:05;;;;;;;;;3.50;3.50;;;;;36.20;100.00;101453.56;5119880;27;51069;-43
2022/10/17 10:28:58;;;;;;;;;6.50;4.50;;;;;36.13;100.00;101467.19;5119738;27;51160;-43
2022/10/17 10:31:42;;;;;;;;;5.75;3.00;;;;;36.06;100.00;101457.75;5120243;27;51213;-45
2022/10/17 10:34:29;;;;;;;;;5.75;4.00;;;;;36.04;100.00;101453.41;5119636;27;51155;-44
2022/10/17 10:37:24;;;;;;;;;7.25;4.50;;;;;35.99;100.00;101451.97;5116467;27;51342;-44
2022/10/17 10:40:32;;;;;;;;;7.25;4.75;;;;;35.95;100.00;101442.25;5108049;27;51545;-44
2022/10/17 10:43:29;;;;;;;;;4.25;3.50;;;;;35.89;100.00;101442.81;5114461;27;51135;-43
2022/10/17 10:46:19;;;;;;;;;5.75;2.00;;;;;35.80;100.00;101435.44;5117085;27;51043;-44
2022/10/17 10:49:03;;;;;;;;;6.50;4.00;;;;;35.71;100.00;101441.91;5119725;27;51456;-44
2022/10/17 10:51:48;;;;;;;;;5.50;4.00;;;;;35.67;100.00;101431.13;5118223;27;51028;-43
2022/10/17 10:54:39;;;;;;;;;4.25;3.50;;;;;35.56;100.00;101430.50;5107196;27;51320;-44
2022/10/17 10:57:28;;;;;;;;;8.25;4.75;;;;;35.43;100.00;101425.31;5121593;27;51120;-45
2022/10/17 11:00:19;;;;;;;;;6.00;4.25;;;;;35.42;100.00;101429.09;5120591;27;51240;-45
2022/10/17 11:03:12;;;;;;;;;2.75;2.75;;;;;35.44;100.00;101427.06;5122630;27;51516;-46
2022/10/17 11:06:06;;;;;;;;;5.00;5.00;;;;;35.38;100.00;101425.75;5124959;27;51250;-44
2022/10/17 11:08:58;;;;;;;;;5.00;3.75;;;;;35.39;100.00;101427.50;5099155;27;51289;-44
2022/10/17 11:11:58;;;;;;;;;7.75;6.50;;;;;35.39;100.00;101419.19;5119988;27;51181;-44
2022/10/17 11:15:06;;;;;;;;;4.00;3.00;;;;;35.40;100.00;101408.97;5120533;27;51165;-45
2022/10/17 11:18:11;;;;;;;;;4.25;4.25;;;;;35.43;100.00;101405.94;5118721;27;51172;-48
2022/10/17 11:20:59;;;;;;;;;9.50;7.00;;;;;35.36;100.00;101406.50;5120011;27;51409;-44
2022/10/17 11:23:55;;;;;;;;;7.00;5.25;;;;;35.24;100.00;101399.41;5119408;27;51112;-46
2022/10/17 11:27:00;;;;;;;;;12.00;8.75;;;;;35.29;100.00;101404.53;5118765;27;51061;-45
2022/10/17 11:29:45;;;;;;;;;6.25;4.50;;;;;35.26;100.00;101400.16;5121236;27;51147;-45
2022/10/17 11:32:45;;;;;;;;;2.75;2.25;;;;;35.27;100.00;101396.34;5122192;27;52100;-45
2022/10/17 11:35:35;;;;;;;;;4.25;4.25;;;;;35.22;100.00;101401.50;5121350;27;51190;-47
2022/10/17 11:38:36;;;;;;;;;5.00;5.00;;;;;35.26;100.00;101397.38;5121723;27;51094;-46
2022/10/17 11:41:37;;;;;;;;;6.25;3.50;;;;;35.26;100.00;101402.91;5121491;27;51437;-44
2022/10/17 11:44:34;;;;;;;;;7.25;4.25;;;;;35.22;100.00;101390.44;5122302;27;51152;-44
2022/10/17 11:47:31;;;;;;;;;4.75;3.75;;;;;35.14;100.00;101387.53;5122616;27;51105;-43
2022/10/17 11:50:25;;;;;;;;;7.50;3.50;;;;;35.12;100.00;101378.53;5122266;27;51887;-43
2022/10/17 11:53:14;;;;;;;;;5.00;3.75;;;;;35.12;100.00;101376.63;5123322;27;51183;-44
2022/10/17 11:56:00;;;;;;;;;6.00;4.75;;;;;35.05;100.00;101362.53;5121956;27;51013;-43
2022/10/17 11:59:27;;;;;;;;;4.00;3.50;;;;;34.95;100.00;101364.47;5120604;27;51372;-43
2022/10/17 12:02:40;;;;;;;;;5.00;4.00;;;;;34.95;100.00;101358.94;5078165;27;51166;-44
2022/10/17 12:05:45;;;;;;;;;5.00;3.75;;;;;34.87;100.00;101344.97;5121102;27;51495;-46
2022/10/17 12:09:01;;;;;;;;;4.00;4.00;;;;;34.80;100.00;101364.03;5120404;27;51381;-44
2022/10/17 12:12:00;;;;;;;;;5.25;3.75;;;;;34.71;100.00;101348.38;5120049;27;51203;-45
2022/10/17 12:14:45;;;;;;;;;4.50;3.75;;;;;34.71;100.00;101340.06;5120764;27;51167;-44
2022/10/17 12:17:37;;;;;;;;;3.75;3.25;;;;;34.72;100.00;101348.19;5114870;27;51098;-46
2022/10/17 12:20:26;;;;;;;;;4.00;4.00;;;;;34.67;100.00;101342.28;5119720;27;50993;-45
2022/10/17 12:23:10;;;;;;;;;5.50;5.00;;;;;34.59;100.00;101337.47;5122579;27;51127;-47
2022/10/17 12:26:01;;;;;;;;;3.50;3.50;;;;;34.54;100.00;101331.53;5120695;27;51506;-45
2022/10/17 12:28:48;;;;;;;;;5.25;2.75;;;;;34.50;100.00;101334.75;5118797;27;51221;-46
2022/10/17 12:31:34;;;;;;;;;6.25;3.75;;;;;34.43;100.00;101324.28;5123143;27;51121;-47
2022/10/17 12:34:21;;;;;;;;;4.25;4.25;;;;;34.34;100.00;101314.09;5119228;27;51415;-44
2022/10/17 12:37:10;;;;;;;;;9.25;5.75;;;;;34.34;100.00;101321.53;5121302;27;51454;-43
2022/10/17 12:39:55;;;;;;;;;6.00;3.50;;;;;34.26;100.00;101314.81;5120359;27;51403;-45
2022/10/17 12:42:48;;;;;;;;;5.00;2.75;;;;;34.21;100.00;101316.28;5117084;27;51312;-45
2022/10/17 12:45:53;;;;;;;;;6.25;5.75;;;;;34.23;100.00;101311.50;5121730;27;51258;-45
2022/10/17 12:48:37;;;;;;;;;6.00;4.00;;;;;34.21;100.00;101305.22;5090981;27;51092;-44
2022/10/17 12:51:23;;;;;;;;;6.50;6.00;;;;;34.16;100.00;101311.19;5108668;27;51440;-45
2022/10/17 12:54:11;;;;;;;;;4.75;3.75;;;;;34.09;100.00;101305.38;5119493;27;51117;-47